Time;durP1;ratioP1;P1;durP2;ratioP2;P2;SDS_P1;SDS_P2;PMS_P1;PMS_P2;Temp;Humidity;BMP_temperature;BMP_pressure;BME280_temperature;BME280_humidity;BME280_pressure;Samples;Min_cycle;Max_cycle;Signal;HPM_P1;HPM_P2
2021/06/19 00:05:00;;;;;;;15.43;11.20;;;;;;;18.81;68.07;99169.64;4077421;84;21596;-77
2021/06/19 00:11:02;;;;;;;12.95;11.10;;;;;;;18.73;68.40;99173.75;4075782;85;21087;-79
2021/06/19 00:17:04;;;;;;;12.28;11.03;;;;;;;18.65;68.77;99170.96;4081171;85;21118;-79
2021/06/19 00:23:05;;;;;;;14.87;11.25;;;;;;;18.54;69.13;99166.98;4081656;85;21066;-82
2021/06/19 00:29:07;;;;;;;13.40;11.97;;;;;;;18.46;69.43;99166.16;4056898;85;21147;-79
2021/06/19 00:35:09;;;;;;;16.17;11.53;;;;;;;18.35;69.79;99168.30;4070930;85;21063;-80
2021/06/19 00:41:11;;;;;;;16.37;11.03;;;;;;;18.29;70.18;99169.99;4081307;85;21070;-83
2021/06/19 00:47:14;;;;;;;16.57;12.47;;;;;;;18.20;70.54;99169.73;4064576;85;21138;-79
2021/06/19 00:53:15;;;;;;;13.58;10.32;;;;;;;18.18;70.83;99168.00;4122858;84;21035;-80
2021/06/19 00:59:17;;;;;;;13.93;10.85;;;;;;;18.22;71.38;99165.34;4134494;85;21509;-81
2021/06/19 01:05:19;;;;;;;15.08;11.85;;;;;;;18.46;71.31;99166.92;4128797;85;21098;-79
2021/06/19 01:11:25;;;;;;;15.65;10.13;;;;;;;18.26;71.16;99158.38;4138669;85;21525;-80
2021/06/19 01:17:27;;;;;;;12.43;11.13;;;;;;;18.33;71.64;99162.39;4125829;85;21082;-80
2021/06/19 01:23:29;;;;;;;11.78;9.63;;;;;;;18.24;71.43;99158.00;4117241;84;21106;-79
2021/06/19 01:29:31;;;;;;;16.02;11.25;;;;;;;18.17;71.89;99156.72;4123455;85;21003;-79
2021/06/19 01:35:32;;;;;;;18.20;11.35;;;;;;;18.12;71.84;99154.45;4125866;85;21579;-79
2021/06/19 01:41:34;;;;;;;14.93;11.93;;;;;;;17.82;72.05;99144.22;4142287;85;21567;-80
2021/06/19 01:47:35;;;;;;;13.25;10.00;;;;;;;17.56;72.24;99151.95;4135088;85;21680;-79
2021/06/19 01:53:41;;;;;;;14.68;11.25;;;;;;;17.53;73.10;99146.45;4071928;85;21663;-80
2021/06/19 01:59:42;;;;;;;18.10;12.77;;;;;;;17.45;72.73;99157.44;4053807;86;21015;-80
2021/06/19 02:05:45;;;;;;;15.05;11.45;;;;;;;17.07;73.00;99162.25;4057970;85;21067;-79
2021/06/19 02:11:46;;;;;;;11.70;10.43;;;;;;;16.85;73.54;99161.72;4044580;85;21125;-81
2021/06/19 02:17:48;;;;;;;11.30;9.68;;;;;;;16.67;73.72;99158.97;4042457;85;21023;-79
2021/06/19 02:23:50;;;;;;;14.13;9.50;;;;;;;16.52;74.18;99154.80;4040538;87;21500;-79
2021/06/19 02:29:51;;;;;;;15.80;10.60;;;;;;;16.41;74.41;99149.33;4050496;87;21075;-79
2021/06/19 02:35:53;;;;;;;13.58;9.88;;;;;;;16.29;75.05;99144.33;4036400;87;21043;-79
2021/06/19 02:41:55;;;;;;;16.35;10.55;;;;;;;16.44;75.75;99161.55;4040114;86;21060;-80
2021/06/19 02:47:59;;;;;;;13.95;11.50;;;;;;;16.83;75.72;99162.75;4038468;86;21144;-79
2021/06/19 02:54:01;;;;;;;12.68;10.93;;;;;;;16.86;75.56;99161.14;4112702;85;21136;-80
2021/06/19 03:00:05;;;;;;;12.68;10.45;;;;;;;16.92;75.40;99162.24;4126192;84;21038;-79
2021/06/19 03:06:07;;;;;;;11.63;9.35;;;;;;;16.68;75.71;99159.94;4138492;85;21435;-79
2021/06/19 03:12:09;;;;;;;13.98;10.55;;;;;;;16.65;76.04;99166.30;4127836;85;21638;-79
2021/06/19 03:18:10;;;;;;;14.73;11.22;;;;;;;16.78;76.29;99165.17;4136126;85;21078;-79
2021/06/19 03:24:13;;;;;;;13.25;9.75;;;;;;;16.75;76.28;99170.94;4129095;85;21127;-79
2021/06/19 03:30:17;;;;;;;13.70;8.83;;;;;;;16.94;76.60;99172.30;4152825;85;21107;-79
2021/06/19 03:36:18;;;;;;;14.60;11.28;;;;;;;17.08;76.59;99171.55;4134008;85;21590;-79
2021/06/19 03:42:20;;;;;;;10.40;9.30;;;;;;;17.12;76.68;99175.03;4139953;84;21090;-79
2021/06/19 03:48:21;;;;;;;16.30;10.18;;;;;;;17.18;76.89;99172.58;4122047;85;21024;-79
2021/06/19 03:54:22;;;;;;;12.15;10.13;;;;;;;17.35;76.63;99186.02;4138827;85;21106;-80
2021/06/19 04:00:25;;;;;;;12.90;9.38;;;;;;;17.36;76.81;99190.34;4132751;85;21007;-79
2021/06/19 04:06:26;;;;;;;13.75;9.83;;;;;;;17.36;77.16;99188.96;4131939;85;21095;-79
2021/06/19 04:12:28;;;;;;;12.73;10.60;;;;;;;17.47;77.31;99185.48;4124251;84;21096;-79
2021/06/19 04:18:29;;;;;;;11.22;9.53;;;;;;;17.69;77.16;99174.30;4118819;85;21055;-79
2021/06/19 04:24:30;;;;;;;14.75;11.25;;;;;;;17.85;77.12;99175.26;4119393;83;21563;-79
2021/06/19 04:30:34;;;;;;;14.18;11.20;;;;;;;17.96;77.18;99173.08;4133237;85;21102;-79
2021/06/19 04:36:35;;;;;;;15.45;11.15;;;;;;;18.05;77.17;99169.79;4123354;85;21126;-80
2021/06/19 04:42:38;;;;;;;13.93;10.70;;;;;;;18.15;77.26;99164.69;4117268;85;21038;-79
2021/06/19 04:48:39;;;;;;;14.75;9.15;;;;;;;18.27;77.29;99168.23;4137238;84;21096;-80
2021/06/19 04:54:41;;;;;;;11.45;10.10;;;;;;;18.41;77.33;99163.86;4130662;85;21091;-79
2021/06/19 05:00:43;;;;;;;13.98;9.65;;;;;;;18.65;77.27;99166.80;4133173;85;21090;-79
2021/06/19 05:06:44;;;;;;;11.93;9.95;;;;;;;18.78;77.29;99161.41;4127308;85;21592;-78
2021/06/19 05:12:47;;;;;;;17.40;9.48;;;;;;;18.95;77.48;99156.13;4125914;85;21102;-79
2021/06/19 05:18:57;;;;;;;13.75;9.93;;;;;;;19.19;77.21;99154.22;4128594;85;20995;-78
2021/06/19 05:25:08;;;;;;;14.28;9.98;;;;;;;19.38;76.97;99155.43;4017252;84;5622894;-79
2021/06/19 05:31:13;;;;;;;11.35;9.00;;;;;;;19.62;77.02;99162.44;4122399;84;21590;-79
2021/06/19 05:37:23;;;;;;;16.93;10.05;;;;;;;19.96;76.83;99168.38;4095365;84;21991;-80
2021/06/19 05:43:39;;;;;;;11.10;9.58;;;;;;;20.21;76.57;99161.64;4119301;84;21097;-79
2021/06/19 05:49:39;;;;;;;15.90;9.78;;;;;;;20.42;76.09;99164.50;4109029;84;21535;-79
2021/06/19 05:55:40;;;;;;;9.13;8.18;;;;;;;20.58;75.96;99163.84;4075655;84;21111;-81
2021/06/19 06:01:42;;;;;;;10.65;8.48;;;;;;;20.77;75.81;99162.16;4088908;86;21106;-79
2021/06/19 06:07:45;;;;;;;12.73;8.50;;;;;;;20.95;75.66;99163.25;4094169;86;21063;-79
2021/06/19 06:13:47;;;;;;;10.88;7.85;;;;;;;21.11;75.43;99163.83;4101965;86;21035;-78
2021/06/19 06:19:49;;;;;;;10.13;7.60;;;;;;;21.30;75.30;99176.77;4111009;84;21103;-79
2021/06/19 06:25:51;;;;;;;9.43;7.65;;;;;;;21.52;74.37;99172.13;4109108;86;21046;-79
2021/06/19 06:31:54;;;;;;;14.10;8.40;;;;;;;21.71;74.06;99155.83;4097682;84;21673;-79
2021/06/19 06:37:55;;;;;;;9.25;6.97;;;;;;;21.86;73.72;99160.38;4112354;84;21055;-78
2021/06/19 06:43:57;;;;;;;9.38;7.25;;;;;;;;;;4117665;84;21074;-78
2021/06/19 06:49:59;;;;;;;12.98;8.10;;;;;;;22.32;73.06;99158.25;4109771;84;21079;-80
2021/06/19 06:56:03;;;;;;;10.75;7.00;;;;;;;22.67;72.36;99163.45;4076735;85;21551;-83
2021/06/19 07:02:04;;;;;;;10.78;6.78;;;;;;;23.04;71.80;99161.09;4076933;85;21141;-79
2021/06/19 07:08:06;;;;;;;9.75;6.45;;;;;;;23.61;71.22;99157.59;4053767;85;21035;-81
2021/06/19 07:14:07;;;;;;;8.88;7.10;;;;;;;24.37;70.80;99160.68;4072357;85;21654;-79
2021/06/19 07:20:11;;;;;;;7.28;6.58;;;;;;;25.16;69.63;99166.66;4076901;85;21082;-81
2021/06/19 07:26:12;;;;;;;12.55;6.17;;;;;;;25.83;68.56;99161.52;4089881;85;21171;-80
2021/06/19 07:32:15;;;;;;;9.40;5.80;;;;;;;26.33;66.88;99136.03;4062613;86;21199;-79
2021/06/19 07:38:16;;;;;;;6.87;6.17;;;;;;;26.83;65.42;99161.73;4098429;85;21075;-80
2021/06/19 07:44:17;;;;;;;7.45;6.15;;;;;;;27.03;64.06;99157.66;4098936;85;21114;-79
2021/06/19 07:50:19;;;;;;;10.20;5.90;;;;;;;27.24;62.60;99148.73;4079322;85;21031;-78
2021/06/19 07:56:22;;;;;;;8.95;5.80;;;;;;;27.41;62.30;99156.23;4090313;84;21683;-80
2021/06/19 08:02:24;;;;;;;9.75;6.05;;;;;;;27.46;60.52;99149.94;4117004;85;21027;-80
2021/06/19 08:08:25;;;;;;;9.35;5.83;;;;;;;27.42;59.46;99147.17;4086524;85;21131;-78
2021/06/19 08:14:26;;;;;;;9.88;5.40;;;;;;;27.47;58.51;99143.66;4088477;85;22156;-81
2021/06/19 08:20:31;;;;;;;7.30;5.70;;;;;;;27.46;57.90;99143.53;4071308;86;20992;-83
2021/06/19 08:26:36;;;;;;;7.67;5.65;;;;;;;27.51;56.21;99134.42;4064938;85;21050;-80
2021/06/19 08:32:41;;;;;;;5.17;4.47;;;;;;;27.51;56.91;99126.77;4089585;86;21051;-81
2021/06/19 08:38:42;;;;;;;4.22;3.83;;;;;;;27.65;56.69;99129.41;4100414;85;21035;-80
2021/06/19 08:44:45;;;;;;;3.85;2.77;;;;;;;27.70;56.29;99117.48;4069321;85;21035;-81
2021/06/19 08:50:48;;;;;;;6.45;2.80;;;;;;;27.91;50.31;99114.12;4055492;85;21035;-80
2021/06/19 08:56:50;;;;;;;5.45;2.30;;;;;;;27.89;53.65;99117.43;4050807;85;21048;-80
2021/06/19 09:02:52;;;;;;;5.10;3.08;;;;;;;27.91;53.77;99105.03;4041242;85;21075;-81
2021/06/19 09:09:09;;;;;;;3.83;3.42;;;;;;;28.06;53.49;99105.78;4037349;87;21020;-81
2021/06/19 09:15:16;;;;;;;5.10;3.12;;;;;;;28.10;51.89;99109.16;4035124;87;21046;-78
2021/06/19 09:21:19;;;;;;;5.78;2.83;;;;;;;28.16;51.99;99100.15;4044110;87;21059;-77
2021/06/19 09:27:45;;;;;;;3.85;2.75;;;;;;;28.36;51.70;99109.25;4020821;85;21059;-78
2021/06/19 09:33:51;;;;;;;5.53;2.90;;;;;;;28.53;50.68;99107.45;4011345;87;21011;-80
2021/06/19 09:39:54;;;;;;;4.50;2.77;;;;;;;28.61;49.29;99098.72;4043001;87;21338;-78
2021/06/19 09:46:08;;;;;;;4.15;2.83;;;;;;;28.96;49.50;99100.75;4052181;87;21068;-79
2021/06/19 09:52:10;;;;;;;3.62;2.60;;;;;;;29.08;47.21;99098.23;4047896;86;21103;-80
2021/06/19 09:58:16;;;;;;;5.72;3.22;;;;;;;29.50;48.05;99084.89;4065634;86;21066;-80
2021/06/19 10:04:27;;;;;;;5.33;3.25;;;;;;;29.70;45.39;99085.59;4076740;85;21086;-80
2021/06/19 10:10:30;;;;;;;4.85;3.17;;;;;;;29.79;44.90;99086.80;4056190;85;21163;-79
2021/06/19 10:16:31;;;;;;;4.35;3.20;;;;;;;29.90;44.58;99079.82;4077757;85;22262;-79
2021/06/19 10:22:40;;;;;;;5.83;3.25;;;;;;;30.03;45.10;99078.75;4086706;85;21048;-79
2021/06/19 10:29:00;;;;;;;5.55;3.50;;;;;;;30.17;44.53;99081.25;4093814;85;21011;-80
2021/06/19 10:35:15;;;;;;;4.37;3.10;;;;;;;30.18;43.94;99079.34;4064166;85;21584;-79
2021/06/19 10:41:54;;;;;;;4.87;3.47;;;;;;;30.57;41.85;99074.53;4078776;85;21023;-80
2021/06/19 10:48:37;;;;;;;4.28;3.22;;;;;;;30.75;43.83;99074.06;4092771;85;21004;-80
2021/06/19 10:55:05;;;;;;;5.03;3.30;;;;;;;30.86;43.10;99062.81;4062108;85;21094;-81
2021/06/19 11:01:25;;;;;;;5.80;3.50;;;;;;;30.90;43.38;99039.33;4059795;85;21140;-82
2021/06/19 11:14:06;;;;;;;5.42;3.12;;;;;;;31.44;43.17;99023.05;4061160;85;22221;-80
2021/06/19 11:20:23;;;;;;;4.10;2.70;;;;;;;31.78;41.98;99018.87;4072746;85;21128;-80
2021/06/19 11:26:57;;;;;;;6.35;3.17;;;;;;;31.91;41.44;99022.59;4069658;81;34090;-80
2021/06/19 11:33:25;;;;;;;6.65;2.70;;;;;;;32.27;41.11;99012.94;4072339;86;21039;-81
2021/06/19 11:39:35;;;;;;;3.47;3.17;;;;;;;32.35;39.00;99015.98;4065044;85;21090;-81
2021/06/19 11:45:44;;;;;;;4.80;2.85;;;;;;;32.63;39.63;99006.09;4071103;86;21026;-83
2021/06/19 11:51:52;;;;;;;6.78;2.90;;;;;;;33.15;39.90;98998.27;4051773;86;21969;-81
2021/06/19 11:58:08;;;;;;;3.42;2.30;;;;;;;33.36;39.26;98991.48;4077554;85;20997;-82
2021/06/19 12:04:21;;;;;;;6.30;2.65;;;;;;;33.50;39.31;98984.67;4075151;85;21019;-80
2021/06/19 12:10:30;;;;;;;2.87;2.35;;;;;;;33.41;39.51;98982.86;4054246;86;21634;-81
2021/06/19 12:16:33;;;;;;;5.10;2.70;;;;;;;32.96;36.28;98984.63;4063428;86;21430;-81
2021/06/19 12:22:40;;;;;;;4.65;2.85;;;;;;;32.69;37.83;98981.30;4070719;86;21026;-81
2021/06/19 12:28:59;;;;;;;;;;;;;;;;;;;;;
2021/06/19 12:35:10;;;;;;;6.12;2.90;;;;;;;31.90;38.31;98979.36;4068649;85;21046;-82
2021/06/19 12:41:16;;;;;;;4.65;2.67;;;;;;;31.75;38.70;98968.19;4079973;85;21515;-81
2021/06/19 12:47:39;;;;;;;3.47;2.65;;;;;;;31.54;38.79;98974.05;4084229;86;21027;-82
2021/06/19 12:53:49;;;;;;;3.50;3.00;;;;;;;31.46;39.04;98966.73;4074538;85;21126;-80
2021/06/19 12:59:54;;;;;;;7.55;3.90;;;;;;;31.13;39.25;98961.73;4048469;86;21592;-81
2021/06/19 13:05:59;;;;;;;6.90;3.37;;;;;;;30.91;39.79;98953.25;4062341;86;21100;-80
2021/06/19 13:12:00;;;;;;;7.00;3.07;;;;;;;30.86;40.38;98954.01;4084702;86;21043;-80
2021/06/19 13:18:13;;;;;;;4.42;3.55;;;;;;;30.74;40.50;98945.38;4078002;86;21582;-80
2021/06/19 13:24:23;;;;;;;7.15;3.47;;;;;;;30.59;40.74;98936.38;4072618;86;21078;-79
2021/06/19 13:30:25;;;;;;;10.08;3.67;;;;;;;30.51;41.12;98942.52;4048843;86;21103;-78
2021/06/19 13:36:41;;;;;;;7.47;3.50;;;;;;;30.49;41.23;98935.19;4045879;85;21074;-80
2021/06/19 13:42:58;;;;;;;4.17;3.35;;;;;;;30.42;40.92;98933.52;4054926;85;21054;-80
2021/06/19 13:49:02;;;;;;;3.35;2.92;;;;;;;30.33;41.36;98942.23;4068281;86;21408;-81
2021/06/19 13:55:04;;;;;;;4.78;3.25;;;;;;;30.25;41.64;98939.14;4059985;86;21092;-80
2021/06/19 14:01:06;;;;;;;3.55;3.25;;;;;;;30.17;41.88;98935.87;4065512;85;21042;-80
2021/06/19 14:07:09;;;;;;;3.87;3.25;;;;;;;30.16;42.19;98920.22;4051861;86;21047;-80
2021/06/19 14:13:10;;;;;;;3.65;2.98;;;;;;;30.11;42.36;98914.69;4063115;86;21036;-80
2021/06/19 14:19:11;;;;;;;11.20;3.77;;;;;;;30.10;42.61;98905.33;4077372;84;20990;-79
2021/06/19 14:25:13;;;;;;;13.85;3.92;;;;;;;30.14;42.82;98903.01;4055324;86;21094;-81
2021/06/19 14:31:15;;;;;;;6.22;3.72;;;;;;;30.06;43.06;98894.27;4071843;86;21074;-80
2021/06/19 14:37:17;;;;;;;4.58;3.25;;;;;;;30.09;42.85;98889.02;4071679;86;21145;-80
2021/06/19 14:43:19;;;;;;;4.97;3.30;;;;;;;30.14;42.71;98895.95;4061237;86;21615;-79
2021/06/19 14:49:20;;;;;;;6.80;3.52;;;;;;;30.10;42.71;98891.95;4064494;85;21099;-82
2021/06/19 14:55:22;;;;;;;5.33;3.37;;;;;;;30.02;42.54;98898.63;4041689;86;21147;-80
2021/06/19 15:01:23;;;;;;;3.72;3.22;;;;;;;29.96;42.40;98899.25;4000859;87;21575;-80
2021/06/19 15:07:27;;;;;;;6.17;3.10;;;;;;;30.00;42.73;98892.08;3997763;86;21075;-79
2021/06/19 15:13:29;;;;;;;4.58;3.20;;;;;;;30.04;42.60;98888.36;4009516;85;21034;-80
2021/06/19 15:19:31;;;;;;;7.72;3.05;;;;;;;30.07;42.27;98890.81;4001313;87;21066;-80
2021/06/19 15:25:36;;;;;;;7.92;2.92;;;;;;;29.92;42.12;98891.66;4001058;85;21085;-81
2021/06/19 15:31:39;;;;;;;4.93;3.07;;;;;;;29.74;41.65;98880.83;4011590;87;21083;-80
2021/06/19 15:37:41;;;;;;;5.20;3.33;;;;;;;29.57;41.92;98879.97;4021056;85;21097;-78
2021/06/19 15:43:43;;;;;;;6.33;3.30;;;;;;;29.40;42.10;98875.63;4003586;87;21585;-80
2021/06/19 15:49:55;;;;;;;5.25;3.47;;;;;;;29.31;42.31;98867.39;4017063;86;21555;-82
2021/06/19 15:55:56;;;;;;;4.75;3.42;;;;;;;29.19;42.81;98872.06;4009018;86;21132;-79
2021/06/19 16:01:58;;;;;;;4.20;3.80;;;;;;;29.07;43.19;98872.63;4046395;86;21004;-81
2021/06/19 16:07:59;;;;;;;8.55;3.72;;;;;;;29.00;43.46;98874.48;4054020;85;21201;-79
2021/06/19 16:14:01;;;;;;;6.53;3.67;;;;;;;28.94;44.09;98864.56;4071265;86;21058;-81
2021/06/19 16:20:06;;;;;;;6.78;3.52;;;;;;;28.81;44.19;98849.38;4070156;86;21000;-80
2021/06/19 16:26:08;;;;;;;7.37;4.20;;;;;;;28.64;44.40;98845.66;3951148;82;10000341;-79
2021/06/19 16:32:13;;;;;;;9.28;4.20;;;;;;;28.53;44.81;98856.21;4073766;86;21161;-79
2021/06/19 16:38:14;;;;;;;11.93;3.77;;;;;;;28.36;45.12;98860.11;3964462;87;21098;-81
2021/06/19 16:44:15;;;;;;;4.35;3.60;;;;;;;28.32;45.12;98867.37;4103616;85;21007;-80
2021/06/19 16:50:18;;;;;;;7.72;3.30;;;;;;;28.27;45.01;98867.33;4055149;86;21622;-79
2021/06/19 16:56:19;;;;;;;5.17;3.98;;;;;;;28.20;44.88;98857.91;4048039;86;21027;-82
2021/06/19 17:02:21;;;;;;;7.37;3.85;;;;;;;28.14;44.92;98864.13;4005653;87;21090;-80
2021/06/19 17:08:35;;;;;;;4.60;3.62;;;;;;;28.05;45.07;98876.30;3995657;87;21075;-80
2021/06/19 17:14:36;;;;;;;9.38;3.72;;;;;;;27.95;45.39;98883.99;3966026;88;21000;-79
2021/06/19 17:20:37;;;;;;;4.80;3.40;;;;;;;27.81;45.59;98888.42;3965011;90;20976;-79
2021/06/19 17:26:40;;;;;;;9.98;3.60;;;;;;;27.66;45.75;98889.77;3910183;90;21457;-79
2021/06/19 17:32:42;;;;;;;9.05;3.55;;;;;;;27.57;45.75;98899.10;4036456;87;21039;-79
2021/06/19 17:38:45;;;;;;;8.10;3.83;;;;;;;27.48;45.91;98901.44;3974563;88;21033;-80
2021/06/19 17:44:46;;;;;;;6.30;4.17;;;;;;;27.40;46.52;98909.36;3967959;88;21025;-79
2021/06/19 17:50:48;;;;;;;5.72;3.77;;;;;;;27.27;46.75;98912.50;3970470;88;21498;-79
2021/06/19 17:56:49;;;;;;;8.65;3.72;;;;;;;27.19;47.02;98914.14;3960574;88;21123;-79
2021/06/19 18:02:50;;;;;;;5.47;3.45;;;;;;;27.02;47.24;98910.92;3965552;88;21707;-81
2021/06/19 18:08:53;;;;;;;4.00;3.25;;;;;;;26.70;47.71;98885.28;3967242;88;21013;-80
2021/06/19 18:14:54;;;;;;;6.42;4.35;;;;;;;26.70;47.71;98885.28;3920639;89;21074;-79
2021/06/19 18:20:56;;;;;;;8.00;4.05;;;;;;;26.57;48.04;98885.55;3967819;88;21084;-83
2021/06/19 18:26:58;;;;;;;7.08;4.37;;;;;;;26.42;48.45;98882.61;3963590;88;21047;-79
2021/06/19 18:32:59;;;;;;;5.45;4.30;;;;;;;26.23;48.96;98874.23;3920090;89;20998;-80
2021/06/19 18:39:00;;;;;;;4.53;3.90;;;;;;;26.04;49.36;98882.05;3969392;88;21922;-79
2021/06/19 18:45:04;;;;;;;6.62;4.58;;;;;;;25.84;49.74;98884.05;3966446;88;21060;-81
2021/06/19 18:51:06;;;;;;;8.30;4.22;;;;;;;25.65;50.01;98891.70;3863863;90;21582;-79
2021/06/19 18:57:07;;;;;;;8.15;4.30;;;;;;;25.45;50.31;98897.91;4014369;86;21079;-80
2021/06/19 19:03:11;;;;;;;8.95;4.50;;;;;;;25.30;50.64;98902.64;4011381;85;22025;-82
2021/06/19 19:09:14;;;;;;;7.95;4.58;;;;;;;25.18;50.94;98896.66;4010023;87;21944;-79
2021/06/19 19:15:24;;;;;;;7.00;4.10;;;;;;;25.03;51.23;98904.80;4013219;87;21032;-79
2021/06/19 19:21:24;;;;;;;8.85;4.70;;;;;;;24.92;51.49;98903.17;4004756;87;21036;-80
2021/06/19 19:27:43;;;;;;;4.55;4.08;;;;;;;24.77;51.80;98897.46;3884716;86;9999654;-79
2021/06/19 19:33:45;;;;;;;5.67;4.35;;;;;;;24.70;52.03;98903.38;3996726;87;21999;-80
2021/06/19 19:39:47;;;;;;;8.85;6.87;;;;;;;24.59;52.26;98901.68;4013846;87;21601;-81
2021/06/19 19:45:49;;;;;;;9.43;6.78;;;;;;;24.39;52.54;98898.02;4007162;86;21886;-79
2021/06/19 19:51:53;;;;;;;9.03;6.15;;;;;;;24.17;52.97;98907.83;3996731;87;21123;-81
2021/06/19 19:57:55;;;;;;;13.05;6.67;;;;;;;23.98;53.43;98902.88;4024234;86;21122;-78
2021/06/19 20:03:58;;;;;;;6.22;4.80;;;;;;;23.89;53.90;98904.88;4064759;86;21147;-80
2021/06/19 20:10:03;;;;;;;11.85;5.35;;;;;;;23.93;54.53;98910.46;4065374;85;21003;-79
2021/06/19 20:16:07;;;;;;;7.35;5.40;;;;;;;23.99;54.79;98909.27;4069494;86;21637;-79
2021/06/19 20:22:12;;;;;;;9.90;5.92;;;;;;;24.10;54.77;98913.77;4063967;86;20968;-77
2021/06/19 20:28:16;;;;;;;12.17;6.57;;;;;;;24.08;55.27;98903.05;4001269;86;10000129;-79
2021/06/19 20:34:19;;;;;;;6.40;5.08;;;;;;;24.10;55.75;98905.38;4066851;86;21034;-80
2021/06/19 20:40:21;;;;;;;10.72;5.78;;;;;;;23.96;55.80;98911.56;4072423;86;21591;-80
2021/06/19 20:46:23;;;;;;;6.05;5.17;;;;;;;23.82;56.03;98918.53;4063620;86;21047;-78
2021/06/19 20:52:25;;;;;;;9.15;5.37;;;;;;;23.74;57.28;98926.31;4067147;86;21023;-80
2021/06/19 20:58:26;;;;;;;10.32;5.62;;;;;;;23.65;56.55;98923.52;4070147;86;22006;-79
2021/06/19 21:04:27;;;;;;;7.12;5.83;;;;;;;23.52;56.86;98927.84;4072247;86;21094;-78
2021/06/19 21:10:32;;;;;;;10.78;6.37;;;;;;;23.34;57.13;98923.59;4064217;85;21087;-78
2021/06/19 21:16:34;;;;;;;10.80;7.15;;;;;;;23.15;57.52;98930.34;4071732;85;21038;-79
2021/06/19 21:22:36;;;;;;;8.70;6.53;;;;;;;22.95;58.07;98931.36;4062358;86;21022;-78
2021/06/19 21:28:37;;;;;;;9.63;7.05;;;;;;;22.83;58.65;98928.05;3961404;86;9999645;-79
2021/06/19 21:34:39;;;;;;;8.15;6.35;;;;;;;22.70;58.97;98917.59;4069159;86;21093;-79
2021/06/19 21:40:40;;;;;;;8.10;6.97;;;;;;;22.55;59.39;98926.36;4074027;86;21122;-80
2021/06/19 21:46:42;;;;;;;9.10;6.03;;;;;;;22.33;59.87;98926.97;4067717;85;21116;-80
2021/06/19 21:52:46;;;;;;;8.50;6.20;;;;;;;22.27;60.72;98932.98;4064354;86;21070;-79
2021/06/19 21:58:50;;;;;;;14.60;7.08;;;;;;;22.38;61.04;98941.73;4082482;85;21419;-81
2021/06/19 22:04:51;;;;;;;12.35;7.37;;;;;;;22.16;60.89;98934.74;4073838;86;21027;-80
2021/06/19 22:10:52;;;;;;;11.22;7.10;;;;;;;21.77;61.36;98935.35;4070778;86;21550;-79
2021/06/19 22:16:55;;;;;;;9.80;6.55;;;;;;;21.43;61.96;98937.49;4065695;86;21488;-79
2021/06/19 22:22:56;;;;;;;11.03;6.58;;;;;;;21.22;62.84;98937.42;4080486;86;21066;-79
2021/06/19 22:29:01;;;;;;;12.00;7.17;;;;;;;21.06;63.41;98941.71;4074561;85;21711;-80
2021/06/19 22:35:07;;;;;;;9.08;6.45;;;;;;;21.03;63.90;98935.02;4054505;85;21074;-80
2021/06/19 22:41:11;;;;;;;11.20;7.47;;;;;;;21.06;64.04;98940.32;4064909;85;20994;-79
2021/06/19 22:47:12;;;;;;;10.95;7.15;;;;;;;20.96;64.20;98942.21;4075839;86;21080;-79
2021/06/19 22:53:15;;;;;;;8.95;6.28;;;;;;;20.74;64.65;98937.11;4072990;86;21093;-79
2021/06/19 22:59:17;;;;;;;7.85;6.08;;;;;;;20.67;65.40;98937.94;4066855;85;21075;-80
2021/06/19 23:05:19;;;;;;;13.05;7.72;;;;;;;20.62;65.82;98937.88;4063323;86;21067;-80
2021/06/19 23:11:23;;;;;;;10.03;7.37;;;;;;;20.54;66.29;98926.02;4081317;85;21037;-80
2021/06/19 23:17:24;;;;;;;13.32;7.17;;;;;;;20.42;66.52;98915.66;4069957;85;21581;-79
2021/06/19 23:23:25;;;;;;;8.35;7.30;;;;;;;20.41;66.99;98921.03;4063966;85;21098;-79
2021/06/19 23:29:27;;;;;;;9.58;6.83;;;;;;;20.29;67.15;98910.07;4073772;86;21078;-80
2021/06/19 23:35:28;;;;;;;9.05;7.00;;;;;;;20.14;67.40;98915.85;3966005;88;21094;-78
2021/06/19 23:41:30;;;;;;;8.93;7.05;;;;;;;20.04;67.88;98910.77;4076125;86;21063;-80
2021/06/19 23:47:31;;;;;;;10.25;7.60;;;;;;;19.91;68.00;98911.32;4073430;86;21583;-79
2021/06/19 23:53:33;;;;;;;14.90;8.40;;;;;;;19.77;68.56;98913.70;4095418;86;21055;-79
2021/06/19 23:59:34;;;;;;;11.95;8.23;;;;;;;19.70;68.80;98902.80;4044951;86;21041;-80
